Time;durP1;ratioP1;P1;durP2;ratioP2;P2;SDS_P1;SDS_P2;PMS_P1;PMS_P2;Temp;Humidity;BMP_temperature;BMP_pressure;BME280_temperature;BME280_humidity;BME280_pressure;Samples;Min_cycle;Max_cycle;Signal;HPM_P1;HPM_P2
2021/04/25 00:01:12;;;;;;;11.70;4.57;;;;;;;;;;4905968;29;20188;-73
2021/04/25 00:04:16;;;;;;;8.83;4.40;;;;;;;;;;4905992;29;20200;-73
2021/04/25 00:07:20;;;;;;;7.83;4.37;;;;;;;;;;4905849;29;20200;-73
2021/04/25 00:10:24;;;;;;;7.90;4.37;;;;;;;;;;4931222;23;20207;-74
2021/04/25 00:13:28;;;;;;;7.00;4.23;;;;;;;;;;4928254;29;20212;-74
2021/04/25 00:16:33;;;;;;;12.60;5.13;;;;;;;;;;4936752;29;20212;-74
2021/04/25 00:19:37;;;;;;;8.60;4.93;;;;;;;;;;4886762;29;20229;-74
2021/04/25 00:22:43;;;;;;;10.77;4.47;;;;;;;;;;4898868;29;20573;-74
2021/04/25 00:25:47;;;;;;;9.03;4.43;;;;;;;;;;4931783;29;20231;-74
2021/04/25 00:28:52;;;;;;;14.17;5.30;;;;;;;;;;4936138;29;20200;-74
2021/04/25 00:31:56;;;;;;;6.50;4.13;;;;;;;;;;4936017;29;20200;-74
2021/04/25 00:35:00;;;;;;;9.53;5.13;;;;;;;;;;4924349;29;20180;-74
2021/04/25 00:38:05;;;;;;;10.40;5.43;;;;;;;;;;4936211;29;20208;-74
2021/04/25 00:41:09;;;;;;;7.57;4.47;;;;;;;;;;4936189;29;20635;-74
2021/04/25 00:44:13;;;;;;;9.63;5.47;;;;;;;;;;4924357;29;20184;-72
2021/04/25 00:47:17;;;;;;;7.70;4.77;;;;;;;;;;4935384;29;20191;-72
2021/04/25 00:50:24;;;;;;;10.43;5.33;;;;;;;;;;4936079;29;20195;-72
2021/04/25 00:53:43;;;;;;;11.97;5.23;;;;;;;;;;4898495;29;20643;-72
2021/04/25 00:56:47;;;;;;;7.57;5.00;;;;;;;;;;4899324;29;20561;-72
2021/04/25 00:59:53;;;;;;;10.93;5.20;;;;;;;;;;4902148;29;20209;-72
2021/04/25 01:02:57;;;;;;;8.03;5.27;;;;;;;;;;4879592;29;20553;-72
2021/04/25 01:06:02;;;;;;;11.87;5.17;;;;;;;;;;4901965;29;20221;-72
2021/04/25 01:09:07;;;;;;;11.70;5.50;;;;;;;;;;4902270;29;20182;-72
2021/04/25 01:12:11;;;;;;;10.00;6.37;;;;;;;;;;4901602;29;20204;-72
2021/04/25 01:15:16;;;;;;;11.30;5.43;;;;;;;;;;4902377;29;20546;-72
2021/04/25 01:18:20;;;;;;;8.67;6.10;;;;;;;;;;4890206;29;20684;-72
2021/04/25 01:21:24;;;;;;;11.60;5.50;;;;;;;;;;4901751;29;20667;-72
2021/04/25 01:24:29;;;;;;;7.57;5.50;;;;;;;;;;4901685;29;20182;-72
2021/04/25 01:27:41;;;;;;;7.53;5.40;;;;;;;;;;4913275;29;20208;-72
2021/04/25 01:30:45;;;;;;;9.47;5.77;;;;;;;;;;4939505;29;20547;-72
2021/04/25 01:33:49;;;;;;;8.83;5.50;;;;;;;;;;4939739;29;20632;-74
2021/04/25 01:36:56;;;;;;;13.70;5.97;;;;;;;;;;4939342;29;20215;-74
2021/04/25 01:40:02;;;;;;;9.37;5.20;;;;;;;;;;4938994;29;20204;-74
2021/04/25 01:43:06;;;;;;;11.07;5.83;;;;;;;;;;4927290;29;20212;-74
2021/04/25 01:46:10;;;;;;;8.77;5.73;;;;;;;;;;4938275;29;20219;-74
2021/04/25 01:49:14;;;;;;;11.77;5.63;;;;;;;;;;4939425;29;20176;-74
2021/04/25 01:52:18;;;;;;;10.07;6.17;;;;;;;;;;4939322;29;20184;-74
2021/04/25 01:55:24;;;;;;;9.37;5.90;;;;;;;;;;4939239;29;20699;-74
2021/04/25 01:58:28;;;;;;;11.40;6.53;;;;;;;;;;4938673;29;20936;-74
2021/04/25 02:01:33;;;;;;;7.27;5.73;;;;;;;;;;4927230;29;20549;-74
2021/04/25 02:04:37;;;;;;;7.30;5.70;;;;;;;;;;4939195;29;20189;-74
2021/04/25 02:07:46;;;;;;;14.83;6.80;;;;;;;;;;4938412;29;20188;-74
2021/04/25 02:10:50;;;;;;;10.93;6.77;;;;;;;;;;4926981;29;20611;-74
2021/04/25 02:13:54;;;;;;;12.37;7.60;;;;;;;;;;4938621;29;20184;-74
2021/04/25 02:16:59;;;;;;;11.60;7.43;;;;;;;;;;4938349;29;20219;-74
2021/04/25 02:20:05;;;;;;;10.93;7.27;;;;;;;;;;4926849;29;20595;-74
2021/04/25 02:23:09;;;;;;;11.70;7.77;;;;;;;;;;4938359;29;20188;-74
2021/04/25 02:26:14;;;;;;;14.13;7.27;;;;;;;;;;4938944;29;20220;-74
2021/04/25 02:29:18;;;;;;;17.90;7.43;;;;;;;;;;4926424;29;20199;-74
2021/04/25 02:32:22;;;;;;;12.47;8.00;;;;;;;;;;4926443;29;20693;-74
2021/04/25 02:35:28;;;;;;;9.63;7.87;;;;;;;;;;4926791;29;20623;-74
2021/04/25 02:38:32;;;;;;;10.80;7.10;;;;;;;;;;4926539;29;20603;-74
2021/04/25 02:41:36;;;;;;;16.20;8.73;;;;;;;;;;4926804;29;20193;-74
2021/04/25 02:44:40;;;;;;;11.33;8.20;;;;;;;;;;4937890;29;20556;-74
2021/04/25 02:47:47;;;;;;;13.80;8.90;;;;;;;;;;4937927;29;20181;-74
2021/04/25 02:50:52;;;;;;;12.27;8.70;;;;;;;;;;4926639;29;21087;-74
2021/04/25 02:53:56;;;;;;;13.97;9.33;;;;;;;;;;4915321;29;21132;-74
2021/04/25 02:57:00;;;;;;;12.27;8.63;;;;;;;;;;4926450;29;20624;-74
2021/04/25 03:00:07;;;;;;;16.17;9.23;;;;;;;;;;4926099;29;20643;-74
2021/04/25 03:03:11;;;;;;;15.03;9.00;;;;;;;;;;4925844;29;20552;-74
2021/04/25 03:06:15;;;;;;;17.03;9.60;;;;;;;;;;4937578;29;20631;-74
2021/04/25 03:09:19;;;;;;;13.47;9.60;;;;;;;;;;4937411;29;20599;-74
2021/04/25 03:12:23;;;;;;;15.13;9.00;;;;;;;;;;4925770;29;20611;-74
2021/04/25 03:15:27;;;;;;;16.97;9.57;;;;;;;;;;4937784;29;20976;-74
2021/04/25 03:18:32;;;;;;;13.40;9.37;;;;;;;;;;4937116;29;21068;-74
2021/04/25 03:21:36;;;;;;;14.10;9.53;;;;;;;;;;4937652;29;20565;-74
2021/04/25 03:24:40;;;;;;;14.43;9.60;;;;;;;;;;4937440;29;20549;-74
2021/04/25 03:27:45;;;;;;;12.97;9.00;;;;;;;;;;4937353;29;20552;-74
2021/04/25 03:30:50;;;;;;;10.47;7.77;;;;;;;;;;4925656;29;21071;-74
2021/04/25 03:33:56;;;;;;;13.33;9.43;;;;;;;;;;4937260;29;20548;-74
2021/04/25 03:37:00;;;;;;;15.57;8.87;;;;;;;;;;4937143;29;20627;-74
2021/04/25 03:40:06;;;;;;;11.87;8.57;;;;;;;;;;4936767;29;20648;-74
2021/04/25 03:43:10;;;;;;;13.17;8.43;;;;;;;;;;4936996;29;20607;-74
2021/04/25 03:46:14;;;;;;;15.80;9.03;;;;;;;;;;4937436;29;20635;-74
2021/04/25 03:49:21;;;;;;;14.73;9.60;;;;;;;;;;4935941;29;21078;-74
2021/04/25 03:52:25;;;;;;;18.60;10.63;;;;;;;;;;4937055;29;20569;-74
2021/04/25 03:55:30;;;;;;;18.20;10.70;;;;;;;;;;4936829;29;20623;-74
2021/04/25 03:58:34;;;;;;;13.93;9.50;;;;;;;;;;4936708;29;20603;-74
2021/04/25 04:01:39;;;;;;;16.40;10.83;;;;;;;;;;4936526;29;20584;-74
2021/04/25 04:04:43;;;;;;;15.63;10.87;;;;;;;;;;4936693;29;20552;-74
2021/04/25 04:07:48;;;;;;;18.20;11.60;;;;;;;;;;4936578;29;20564;-74
2021/04/25 04:10:51;;;;;;;19.53;10.97;;;;;;;;;;4936589;29;20611;-74
2021/04/25 04:13:56;;;;;;;15.57;10.23;;;;;;;;;;4936503;29;20663;-74
2021/04/25 04:17:01;;;;;;;16.57;10.43;;;;;;;;;;4936167;29;20635;-74
2021/04/25 04:20:06;;;;;;;19.73;11.10;;;;;;;;;;4936668;29;20596;-74
2021/04/25 04:23:10;;;;;;;19.47;11.90;;;;;;;;;;4936302;29;20560;-74
2021/04/25 04:26:15;;;;;;;21.20;11.23;;;;;;;;;;4936073;29;20631;-74
2021/04/25 04:29:19;;;;;;;14.97;10.60;;;;;;;;;;4924607;29;20604;-74
2021/04/25 04:32:24;;;;;;;16.30;10.73;;;;;;;;;;4935997;29;20604;-74
2021/04/25 04:35:28;;;;;;;16.17;11.30;;;;;;;;;;4936701;29;21220;-74
2021/04/25 04:38:32;;;;;;;19.83;11.63;;;;;;;;;;4924529;29;20544;-74
2021/04/25 04:41:37;;;;;;;14.73;10.80;;;;;;;;;;4924758;29;21068;-74
2021/04/25 04:44:41;;;;;;;19.63;11.33;;;;;;;;;;4935979;29;20556;-74
2021/04/25 04:47:47;;;;;;;17.40;11.40;;;;;;;;;;4936125;29;20921;-74
2021/04/25 04:50:51;;;;;;;15.90;11.73;;;;;;;;;;4935799;29;20595;-74
2021/04/25 04:53:55;;;;;;;17.17;11.77;;;;;;;;;;4936051;29;20556;-74
2021/04/25 04:57:00;;;;;;;19.63;12.60;;;;;;;;;;4935984;29;20632;-74
2021/04/25 05:00:06;;;;;;;19.03;11.33;;;;;;;;;;4924166;29;20608;-74
2021/04/25 05:03:10;;;;;;;16.40;11.00;;;;;;;;;;4936339;29;20544;-73
2021/04/25 05:06:14;;;;;;;18.23;11.90;;;;;;;;;;4935952;29;20635;-74
2021/04/25 05:09:19;;;;;;;21.60;10.87;;;;;;;;;;4935767;29;20548;-74
2021/04/25 05:12:23;;;;;;;15.67;9.97;;;;;;;;;;4935644;29;20619;-74
2021/04/25 05:15:27;;;;;;;17.47;10.63;;;;;;;;;;4936266;29;21198;-73
2021/04/25 05:18:31;;;;;;;16.37;11.40;;;;;;;;;;4935179;29;21162;-74
2021/04/25 05:21:35;;;;;;;16.40;11.37;;;;;;;;;;4929862;29;20603;-73
2021/04/25 05:24:41;;;;;;;17.60;12.60;;;;;;;;;;4924273;29;20545;-73
2021/04/25 05:27:45;;;;;;;19.00;12.13;;;;;;;;;;4935763;29;20603;-73
2021/04/25 05:30:49;;;;;;;19.00;12.67;;;;;;;;;;4935788;29;21087;-73
2021/04/25 05:33:53;;;;;;;17.57;12.27;;;;;;;;;;4935933;29;20608;-73
2021/04/25 05:36:57;;;;;;;21.57;13.30;;;;;;;;;;4924170;29;20996;-74
2021/04/25 05:40:03;;;;;;;19.47;12.70;;;;;;;;;;4935360;29;20212;-73
2021/04/25 05:43:08;;;;;;;21.30;13.43;;;;;;;;;;4925510;29;20548;-74
2021/04/25 05:46:15;;;;;;;18.07;12.57;;;;;;;;;;4938993;29;20212;-73
2021/04/25 05:49:19;;;;;;;21.30;13.73;;;;;;;;;;4939005;29;20188;-73
2021/04/25 05:52:23;;;;;;;21.27;13.57;;;;;;;;;;4927570;29;20180;-73
2021/04/25 05:55:28;;;;;;;23.40;14.10;;;;;;;;;;4927677;29;20220;-73
2021/04/25 05:58:32;;;;;;;22.97;13.77;;;;;;;;;;4938968;29;20204;-73
2021/04/25 06:01:36;;;;;;;20.17;13.80;;;;;;;;;;4900975;29;20562;-73
2021/04/25 06:04:41;;;;;;;19.80;12.93;;;;;;;;;;4889793;29;20190;-73
2021/04/25 06:07:45;;;;;;;21.33;13.67;;;;;;;;;;4900933;29;20186;-73
2021/04/25 06:10:49;;;;;;;18.43;12.37;;;;;;;;;;4900863;29;20209;-73
2021/04/25 06:13:54;;;;;;;19.30;13.43;;;;;;;;;;4916503;23;20241;-72
2021/04/25 06:16:58;;;;;;;19.40;13.40;;;;;;;;;;4900583;29;20741;-73
2021/04/25 06:20:03;;;;;;;18.77;12.17;;;;;;;;;;4889254;29;20209;-73
2021/04/25 06:23:07;;;;;;;20.87;12.30;;;;;;;;;;4901055;29;20186;-72
2021/04/25 06:26:11;;;;;;;18.50;12.60;;;;;;;;;;4901080;29;20217;-72
2021/04/25 06:29:15;;;;;;;19.57;12.33;;;;;;;;;;4889224;29;20178;-72
2021/04/25 06:32:22;;;;;;;16.00;11.47;;;;;;;;;;4900872;29;20177;-72
2021/04/25 06:35:29;;;;;;;17.47;11.80;;;;;;;;;;4889435;29;20712;-72
2021/04/25 06:38:34;;;;;;;20.53;12.17;;;;;;;;;;4884642;29;20186;-72
2021/04/25 06:41:38;;;;;;;14.40;11.17;;;;;;;;;;4896493;29;20550;-72
2021/04/25 06:44:43;;;;;;;18.90;12.07;;;;;;;;;;4896545;29;20190;-72
2021/04/25 06:47:48;;;;;;;18.43;11.47;;;;;;;;;;4896571;29;20198;-73
2021/04/25 06:50:52;;;;;;;20.93;12.23;;;;;;;;;;4895621;29;20201;-72
2021/04/25 06:53:57;;;;;;;18.90;11.33;;;;;;;;;;4895190;29;20197;-72
2021/04/25 06:57:01;;;;;;;17.57;12.27;;;;;;;;;;4884657;29;20238;-72
2021/04/25 07:00:06;;;;;;;16.67;11.77;;;;;;;;;;4896175;29;20217;-72
2021/04/25 07:03:20;;;;;;;16.40;11.13;;;;;;;;;;4896174;29;20189;-72
2021/04/25 07:06:34;;;;;;;14.77;10.73;;;;;;;;;;4895558;29;20574;-72
2021/04/25 07:09:38;;;;;;;17.87;10.80;;;;;;;;;;4884539;29;20190;-72
2021/04/25 07:12:43;;;;;;;14.13;10.37;;;;;;;;;;4895871;29;20198;-72
2021/04/25 07:15:47;;;;;;;16.40;10.23;;;;;;;;;;4884371;29;20235;-72
2021/04/25 07:18:52;;;;;;;15.10;10.33;;;;;;;;;;4883997;29;20189;-72
2021/04/25 07:21:57;;;;;;;15.03;9.80;;;;;;;;;;4895753;29;20727;-72
2021/04/25 07:25:03;;;;;;;14.93;10.40;;;;;;;;;;4895762;29;20190;-72
2021/04/25 07:28:07;;;;;;;15.47;11.03;;;;;;;;;;4884300;29;20188;-72
2021/04/25 07:31:12;;;;;;;17.33;9.90;;;;;;;;;;4895297;29;20185;-72
2021/04/25 07:34:17;;;;;;;17.70;10.90;;;;;;;;;;4884000;29;20185;-72
2021/04/25 07:37:25;;;;;;;16.57;10.53;;;;;;;;;;4895635;29;20213;-72
2021/04/25 07:40:29;;;;;;;14.13;9.97;;;;;;;;;;4883978;29;20232;-72
2021/04/25 07:43:34;;;;;;;14.17;9.50;;;;;;;;;;4883465;29;20190;-72
2021/04/25 07:46:38;;;;;;;18.23;10.20;;;;;;;;;;4895517;29;20221;-73
2021/04/25 07:49:42;;;;;;;15.30;10.03;;;;;;;;;;4895416;29;20202;-72
2021/04/25 07:52:47;;;;;;;11.70;9.07;;;;;;;;;;4895254;29;20668;-72
2021/04/25 07:55:51;;;;;;;16.13;9.77;;;;;;;;;;4895053;29;20217;-72
2021/04/25 07:58:55;;;;;;;18.23;10.43;;;;;;;;;;4895107;29;20205;-72
2021/04/25 08:02:00;;;;;;;14.37;10.50;;;;;;;;;;4895073;29;20232;-72
2021/04/25 08:05:07;;;;;;;14.47;9.53;;;;;;;;;;4894603;29;20193;-72
2021/04/25 08:08:11;;;;;;;13.23;10.10;;;;;;;;;;4883753;29;20199;-72
2021/04/25 08:11:15;;;;;;;13.67;9.53;;;;;;;;;;4894976;29;20208;-72
2021/04/25 08:14:19;;;;;;;18.47;10.07;;;;;;;;;;4883221;29;20205;-72
2021/04/25 08:17:25;;;;;;;14.03;9.83;;;;;;;;;;4894830;29;20208;-72
2021/04/25 08:20:29;;;;;;;16.80;9.93;;;;;;;;;;4894864;29;20210;-72
2021/04/25 08:23:34;;;;;;;17.17;9.60;;;;;;;;;;4883311;29;20209;-72
2021/04/25 08:26:38;;;;;;;15.90;10.87;;;;;;;;;;4894686;29;20225;-72
2021/04/25 08:29:43;;;;;;;22.07;9.73;;;;;;;;;;4894549;29;20205;-73
2021/04/25 08:32:47;;;;;;;17.63;10.10;;;;;;;;;;4883139;29;20546;-72
2021/04/25 08:35:51;;;;;;;20.60;10.17;;;;;;;;;;4894500;29;20223;-73
2021/04/25 08:38:56;;;;;;;11.17;8.17;;;;;;;;;;4894573;29;20200;-73
2021/04/25 08:42:00;;;;;;;14.73;9.17;;;;;;;;;;4894140;29;20225;-73
2021/04/25 08:45:05;;;;;;;12.57;9.43;;;;;;;;;;4882904;29;20657;-73
2021/04/25 08:48:11;;;;;;;11.60;8.67;;;;;;;;;;4894560;29;20185;-73
2021/04/25 08:51:16;;;;;;;15.20;8.53;;;;;;;;;;4882805;29;20189;-73
2021/04/25 08:54:26;;;;;;;15.40;7.33;;;;;;;;;;4882999;29;20178;-73
2021/04/25 08:57:34;;;;;;;8.93;7.00;;;;;;;;;;4883402;29;20563;-73
2021/04/25 09:00:39;;;;;;;11.07;7.70;;;;;;;;;;4894465;29;20209;-73
2021/04/25 09:03:43;;;;;;;10.87;7.53;;;;;;;;;;4882754;29;20185;-73
2021/04/25 09:07:01;;;;;;;10.77;6.87;;;;;;;;;;4871689;29;20217;-73
2021/04/25 09:10:34;;;;;;;10.90;7.67;;;;;;;;;;4882856;29;20198;-72
2021/04/25 09:23:22;;;;;;;11.63;7.47;;;;;;;;;;4886182;29;20223;-73
2021/04/25 09:26:41;;;;;;;12.53;7.50;;;;;;;;;;4898646;29;20229;-73
2021/04/25 09:29:50;;;;;;;13.27;7.50;;;;;;;;;;4901556;29;20194;-73
2021/04/25 09:33:02;;;;;;;9.37;7.00;;;;;;;;;;4890227;29;20174;-73
2021/04/25 09:36:10;;;;;;;11.13;7.43;;;;;;;;;;4901701;29;20221;-73
2021/04/25 09:39:17;;;;;;;11.20;6.93;;;;;;;;;;4889801;29;20191;-73
2021/04/25 09:42:21;;;;;;;15.57;7.37;;;;;;;;;;4901492;29;20554;-72
2021/04/25 09:45:47;;;;;;;11.43;7.57;;;;;;;;;;4901378;29;20225;-72
2021/04/25 09:48:51;;;;;;;10.40;7.50;;;;;;;;;;4901663;29;20193;-73
2021/04/25 09:51:56;;;;;;;10.50;8.07;;;;;;;;;;4890158;29;20652;-72
2021/04/25 09:55:23;;;;;;;13.67;9.63;;;;;;;;;;4890105;29;20186;-73
2021/04/25 09:58:28;;;;;;;21.40;11.90;;;;;;;;;;4890372;29;20181;-73
2021/04/25 10:01:40;;;;;;;12.73;7.70;;;;;;;;;;4901300;29;20580;-73
2021/04/25 10:04:44;;;;;;;12.83;7.30;;;;;;;;;;4901026;29;20692;-73
2021/04/25 10:07:49;;;;;;;9.10;6.87;;;;;;;;;;4879247;29;20551;-73
2021/04/25 10:10:54;;;;;;;10.53;6.80;;;;;;;;;;4889832;29;20186;-73
2021/04/25 10:14:02;;;;;;;16.07;6.70;;;;;;;;;;4889278;29;20209;-73
2021/04/25 10:17:06;;;;;;;9.00;6.27;;;;;;;;;;4889074;29;20221;-73
2021/04/25 10:20:12;;;;;;;9.83;6.47;;;;;;;;;;4900646;29;20684;-73
2021/04/25 10:23:17;;;;;;;9.30;6.30;;;;;;;;;;4878488;29;20178;-73
2021/04/25 10:26:23;;;;;;;9.10;6.60;;;;;;;;;;4889715;29;20225;-73
2021/04/25 10:29:34;;;;;;;8.63;6.77;;;;;;;;;;4900360;29;20186;-73
2021/04/25 10:32:41;;;;;;;12.60;6.20;;;;;;;;;;4900670;29;20190;-72
2021/04/25 10:35:55;;;;;;;8.20;4.90;;;;;;;;;;4888913;29;20221;-73
2021/04/25 10:38:59;;;;;;;9.67;4.97;;;;;;;;;;4889010;29;20201;-73
2021/04/25 10:42:25;;;;;;;8.37;5.00;;;;;;;;;;4888907;29;20209;-73
2021/04/25 10:45:34;;;;;;;6.87;5.03;;;;;;;;;;4900382;29;20221;-73
2021/04/25 10:48:39;;;;;;;9.70;5.87;;;;;;;;;;4889034;29;20190;-73
2021/04/25 10:51:43;;;;;;;8.67;5.93;;;;;;;;;;4900383;29;20182;-73
2021/04/25 10:58:19;;;;;;;8.30;5.53;;;;;;;;;;4888790;29;20185;-73
2021/04/25 11:01:39;;;;;;;7.27;5.13;;;;;;;;;;4888913;29;20669;-73
2021/04/25 11:05:04;;;;;;;6.73;5.40;;;;;;;;;;4888760;29;20645;-73
2021/04/25 11:11:36;;;;;;;7.47;4.63;;;;;;;;;;4888456;29;20194;-73
2021/04/25 11:14:41;;;;;;;7.07;4.60;;;;;;;;;;4899758;29;20209;-73
2021/04/25 11:17:46;;;;;;;9.97;5.33;;;;;;;;;;4888620;29;20186;-73
2021/04/25 11:20:50;;;;;;;5.60;4.60;;;;;;;;;;4888624;29;20630;-73
2021/04/25 11:24:25;;;;;;;7.23;4.40;;;;;;;;;;4899985;29;20178;-73
2021/04/25 11:27:33;;;;;;;7.33;4.63;;;;;;;;;;4899749;29;20189;-73
2021/04/25 11:30:42;;;;;;;8.90;4.27;;;;;;;;;;4888414;29;20182;-73
2021/04/25 11:33:46;;;;;;;23.83;5.60;;;;;;;;;;4899929;29;20181;-72
2021/04/25 11:36:52;;;;;;;7.80;4.77;;;;;;;;;;4877504;29;20229;-73
2021/04/25 11:40:02;;;;;;;9.23;4.67;;;;;;;;;;4899555;29;20186;-73
2021/04/25 11:43:07;;;;;;;8.13;4.07;;;;;;;;;;4888291;29;20221;-73
2021/04/25 11:46:12;;;;;;;7.90;4.60;;;;;;;;;;4899227;29;20229;-73
2021/04/25 11:49:17;;;;;;;8.70;4.30;;;;;;;;;;4877430;29;20186;-73
2021/04/25 11:52:30;;;;;;;7.70;4.20;;;;;;;;;;4899120;29;20202;-72
2021/04/25 11:55:34;;;;;;;6.90;4.60;;;;;;;;;;4877372;29;20221;-72
2021/04/25 11:58:39;;;;;;;6.10;4.77;;;;;;;;;;4899143;29;20518;-72
2021/04/25 12:01:43;;;;;;;4.80;4.03;;;;;;;;;;4898157;29;20225;-72
2021/04/25 12:04:49;;;;;;;6.43;4.00;;;;;;;;;;4898794;29;20205;-73
2021/04/25 12:08:03;;;;;;;11.27;4.90;;;;;;;;;;4887364;29;20542;-72
2021/04/25 12:11:07;;;;;;;8.77;4.63;;;;;;;;;;4887672;29;20185;-72
2021/04/25 12:14:19;;;;;;;9.90;4.63;;;;;;;;;;4922178;23;20240;-71
2021/04/25 12:17:34;;;;;;;5.77;4.63;;;;;;;;;;4893415;29;20230;-72
2021/04/25 12:20:48;;;;;;;6.07;4.07;;;;;;;;;;4917425;29;20537;-72
2021/04/25 12:23:56;;;;;;;6.83;3.90;;;;;;;;;;4905672;29;20542;-72
2021/04/25 12:27:00;;;;;;;4.77;3.97;;;;;;;;;;4917108;29;20236;-72
2021/04/25 12:30:16;;;;;;;5.40;4.00;;;;;;;;;;4905605;29;20186;-72
2021/04/25 12:33:20;;;;;;;6.57;4.20;;;;;;;;;;4917747;29;20173;-72
2021/04/25 12:36:27;;;;;;;5.77;4.03;;;;;;;;;;4917202;29;20220;-72
2021/04/25 12:39:39;;;;;;;6.67;4.30;;;;;;;;;;4898764;29;20217;-72
2021/04/25 12:42:43;;;;;;;4.87;4.03;;;;;;;;;;4898633;29;20213;-72
2021/04/25 12:45:48;;;;;;;5.67;4.13;;;;;;;;;;4887099;29;20221;-72
2021/04/25 12:48:57;;;;;;;6.27;4.23;;;;;;;;;;4886634;29;20181;-72
2021/04/25 12:52:02;;;;;;;5.50;3.97;;;;;;;;;;4887020;29;20185;-72
2021/04/25 12:55:07;;;;;;;7.13;3.80;;;;;;;;;;4897976;29;20209;-72
2021/04/25 12:58:12;;;;;;;5.40;4.23;;;;;;;;;;4898177;29;20554;-72
2021/04/25 13:01:24;;;;;;;4.87;3.67;;;;;;;;;;4898535;29;20190;-72
2021/04/25 13:04:38;;;;;;;4.90;3.83;;;;;;;;;;4898314;29;20185;-72
2021/04/25 13:07:44;;;;;;;5.43;3.30;;;;;;;;;;4897915;29;20201;-72
2021/04/25 13:10:49;;;;;;;4.40;3.80;;;;;;;;;;4898226;29;20185;-72
2021/04/25 13:14:10;;;;;;;9.63;3.23;;;;;;;;;;4876051;29;20201;-72
2021/04/25 13:17:22;;;;;;;4.07;3.47;;;;;;;;;;4886590;29;20225;-72
2021/04/25 13:20:30;;;;;;;6.43;3.30;;;;;;;;;;4898420;29;20514;-72
2021/04/25 13:23:44;;;;;;;4.47;3.47;;;;;;;;;;4887906;29;20213;-72
2021/04/25 13:26:49;;;;;;;6.43;3.13;;;;;;;;;;4907626;29;20224;-72
2021/04/25 13:29:53;;;;;;;5.50;3.03;;;;;;;;;;4905312;29;20637;-72
2021/04/25 13:32:57;;;;;;;3.40;2.90;;;;;;;;;;4917129;29;20177;-72
2021/04/25 13:36:04;;;;;;;5.23;3.10;;;;;;;;;;4904849;29;20224;-72
2021/04/25 13:39:10;;;;;;;5.33;3.13;;;;;;;;;;4905229;29;20185;-72
2021/04/25 13:42:14;;;;;;;7.43;3.20;;;;;;;;;;4916743;29;20209;-72
2021/04/25 13:45:18;;;;;;;7.07;2.80;;;;;;;;;;4917175;29;20225;-72
2021/04/25 13:48:23;;;;;;;4.17;2.73;;;;;;;;;;4917281;29;20506;-72
2021/04/25 13:51:27;;;;;;;7.70;3.40;;;;;;;;;;4916939;29;20184;-72
2021/04/25 13:54:31;;;;;;;3.43;2.47;;;;;;;;;;4916710;29;20177;-72
2021/04/25 13:57:35;;;;;;;8.13;3.17;;;;;;;;;;4916673;29;20181;-72
2021/04/25 14:00:40;;;;;;;5.30;3.03;;;;;;;;;;4916390;29;20185;-72
2021/04/25 14:03:44;;;;;;;6.43;2.90;;;;;;;;;;4917814;29;20208;-72
2021/04/25 14:06:49;;;;;;;5.87;3.27;;;;;;;;;;4919970;29;20580;-72
2021/04/25 14:09:53;;;;;;;3.73;2.77;;;;;;;;;;4908572;29;20189;-72
2021/04/25 14:13:09;;;;;;;4.73;2.67;;;;;;;;;;4919824;29;20521;-72
2021/04/25 14:16:13;;;;;;;5.30;2.97;;;;;;;;;;4919828;29;20220;-73
2021/04/25 14:19:18;;;;;;;4.83;2.50;;;;;;;;;;4920018;29;20193;-72
2021/04/25 14:22:22;;;;;;;4.07;2.60;;;;;;;;;;4919812;29;20208;-72
2021/04/25 14:25:27;;;;;;;5.20;2.67;;;;;;;;;;4908280;29;20229;-72
2021/04/25 14:28:31;;;;;;;3.60;2.43;;;;;;;;;;4908171;29;20644;-72
2021/04/25 14:31:36;;;;;;;7.20;2.97;;;;;;;;;;4919620;29;20185;-72
2021/04/25 14:34:40;;;;;;;8.67;4.67;;;;;;;;;;4919564;29;20181;-72
2021/04/25 14:37:45;;;;;;;6.27;4.87;;;;;;;;;;4919420;29;20632;-72
2021/04/25 14:40:49;;;;;;;6.30;3.10;;;;;;;;;;4907804;29;20189;-72
2021/04/25 14:43:53;;;;;;;5.30;2.37;;;;;;;;;;4907803;29;20672;-72
2021/04/25 14:46:58;;;;;;;4.13;2.30;;;;;;;;;;4919289;29;20228;-72
2021/04/25 14:50:04;;;;;;;2.93;2.30;;;;;;;;;;4907924;29;20177;-72
2021/04/25 14:53:08;;;;;;;4.93;2.20;;;;;;;;;;4896760;29;20522;-72
2021/04/25 14:56:12;;;;;;;2.33;1.70;;;;;;;;;;4918952;29;20217;-72
2021/04/25 14:59:16;;;;;;;7.77;2.40;;;;;;;;;;4918928;29;20177;-72
2021/04/25 15:02:22;;;;;;;4.23;2.70;;;;;;;;;;4918988;29;20189;-72
2021/04/25 15:05:26;;;;;;;4.50;2.17;;;;;;;;;;4907486;29;20221;-72
2021/04/25 15:08:30;;;;;;;5.33;2.20;;;;;;;;;;4907382;29;20518;-72
2021/04/25 15:11:34;;;;;;;5.77;4.40;;;;;;;;;;4918818;29;20185;-71
2021/04/25 15:14:38;;;;;;;6.07;3.27;;;;;;;;;;4917835;29;20212;-72
2021/04/25 15:17:43;;;;;;;3.67;2.53;;;;;;;;;;4918748;29;20177;-72
2021/04/25 15:20:47;;;;;;;5.23;2.50;;;;;;;;;;4918376;29;20200;-72
2021/04/25 15:23:51;;;;;;;22.60;3.40;;;;;;;;;;4918542;29;20557;-72
2021/04/25 15:26:56;;;;;;;4.23;2.27;;;;;;;;;;4918519;29;20216;-72
2021/04/25 15:30:00;;;;;;;3.10;1.83;;;;;;;;;;4918230;29;20204;-72
2021/04/25 15:33:05;;;;;;;2.80;1.87;;;;;;;;;;4907014;29;20653;-72
2021/04/25 15:36:09;;;;;;;6.37;2.30;;;;;;;;;;4918215;29;20224;-72
2021/04/25 15:39:16;;;;;;;2.23;1.93;;;;;;;;;;4906695;29;20185;-72
2021/04/25 15:42:23;;;;;;;2.83;1.67;;;;;;;;;;4917997;29;20213;-72
2021/04/25 15:45:36;;;;;;;2.73;2.13;;;;;;;;;;4918176;29;20212;-72
2021/04/25 15:48:41;;;;;;;5.20;1.90;;;;;;;;;;4918119;29;20189;-72
2021/04/25 15:51:45;;;;;;;3.27;1.87;;;;;;;;;;4906194;29;20545;-72
2021/04/25 15:54:49;;;;;;;2.83;1.93;;;;;;;;;;4917773;29;20200;-72
2021/04/25 15:57:54;;;;;;;7.47;2.00;;;;;;;;;;4906385;29;20188;-72
2021/04/25 16:00:58;;;;;;;3.70;1.80;;;;;;;;;;4906340;29;20196;-72
2021/04/25 16:04:03;;;;;;;3.93;1.93;;;;;;;;;;4917826;29;20220;-72
2021/04/25 16:07:07;;;;;;;2.50;1.90;;;;;;;;;;4917772;29;20565;-72
2021/04/25 16:10:11;;;;;;;3.80;2.00;;;;;;;;;;4917773;29;20200;-72
2021/04/25 16:13:15;;;;;;;2.57;1.67;;;;;;;;;;4917384;29;20193;-72
2021/04/25 16:16:19;;;;;;;4.57;2.27;;;;;;;;;;4906267;29;20557;-72
2021/04/25 16:19:24;;;;;;;6.80;3.70;;;;;;;;;;4917642;29;20184;-72
2021/04/25 16:22:28;;;;;;;3.60;1.60;;;;;;;;;;4917303;29;20668;-72
2021/04/25 16:25:34;;;;;;;5.70;2.60;;;;;;;;;;4917185;29;20208;-72
2021/04/25 16:28:38;;;;;;;8.90;3.80;;;;;;;;;;4917727;29;20184;-72
2021/04/25 16:31:42;;;;;;;4.97;1.67;;;;;;;;;;4917456;29;20660;-72
2021/04/25 16:34:46;;;;;;;7.17;2.13;;;;;;;;;;4917134;29;20196;-72
2021/04/25 16:37:52;;;;;;;4.97;2.20;;;;;;;;;;4917124;29;20185;-72
2021/04/25 16:40:57;;;;;;;5.33;3.27;;;;;;;;;;4917400;29;20181;-72
2021/04/25 16:44:01;;;;;;;4.93;2.10;;;;;;;;;;4894964;29;20204;-72
2021/04/25 16:47:05;;;;;;;4.73;2.10;;;;;;;;;;4917223;29;20220;-72
2021/04/25 16:50:10;;;;;;;3.03;1.57;;;;;;;;;;4917302;29;20181;-72
2021/04/25 16:53:15;;;;;;;9.37;4.83;;;;;;;;;;4905463;29;20193;-71
2021/04/25 16:56:19;;;;;;;8.93;4.53;;;;;;;;;;4916904;29;20216;-72
2021/04/25 16:59:23;;;;;;;7.60;4.83;;;;;;;;;;4917020;29;20181;-71
2021/04/25 17:02:27;;;;;;;3.27;1.93;;;;;;;;;;4916885;29;20537;-72
2021/04/25 17:05:31;;;;;;;8.10;2.60;;;;;;;;;;4917418;29;20204;-72
2021/04/25 17:08:35;;;;;;;4.83;2.83;;;;;;;;;;4917039;29;20549;-71
2021/04/25 17:11:39;;;;;;;16.80;2.57;;;;;;;;;;4905424;29;20640;-72
2021/04/25 17:14:43;;;;;;;3.13;1.90;;;;;;;;;;4916789;29;20668;-72
2021/04/25 17:17:51;;;;;;;4.90;1.87;;;;;;;;;;4917035;29;20561;-72
2021/04/25 17:20:55;;;;;;;2.50;1.73;;;;;;;;;;4916905;29;20538;-72
2021/04/25 17:23:59;;;;;;;4.30;2.27;;;;;;;;;;4905255;29;20216;-72
2021/04/25 17:27:04;;;;;;;3.63;2.13;;;;;;;;;;4916598;29;20220;-72
2021/04/25 17:30:11;;;;;;;11.93;5.80;;;;;;;;;;4905265;29;20185;-72
2021/04/25 17:33:19;;;;;;;9.20;5.97;;;;;;;;;;4916868;29;20189;-72
2021/04/25 17:36:24;;;;;;;4.40;3.50;;;;;;;;;;4905095;29;20225;-72
2021/04/25 17:39:35;;;;;;;5.27;2.97;;;;;;;;;;4888280;29;20185;-73
2021/04/25 17:42:39;;;;;;;6.03;3.00;;;;;;;;;;4909134;29;20184;-72
2021/04/25 17:45:45;;;;;;;2.80;2.03;;;;;;;;;;4920431;29;20212;-72
2021/04/25 17:48:49;;;;;;;3.00;1.80;;;;;;;;;;4920702;29;20189;-72
2021/04/25 17:51:53;;;;;;;5.87;2.10;;;;;;;;;;4920398;29;20185;-72
2021/04/25 17:55:08;;;;;;;3.40;2.20;;;;;;;;;;4920101;29;20181;-72
2021/04/25 17:58:13;;;;;;;3.23;1.77;;;;;;;;;;4915889;29;20185;-71
2021/04/25 18:01:18;;;;;;;4.00;2.10;;;;;;;;;;4916284;29;20197;-71
2021/04/25 18:04:23;;;;;;;2.77;2.07;;;;;;;;;;4916203;29;20232;-71
2021/04/25 18:07:28;;;;;;;3.50;1.83;;;;;;;;;;4916170;29;20181;-72
2021/04/25 18:10:32;;;;;;;3.17;1.87;;;;;;;;;;4904424;29;20185;-72
2021/04/25 18:13:37;;;;;;;3.70;2.20;;;;;;;;;;4915947;29;20209;-72
2021/04/25 18:16:41;;;;;;;3.87;2.07;;;;;;;;;;4916077;29;20216;-71
2021/04/25 18:19:45;;;;;;;2.63;1.97;;;;;;;;;;4914926;29;20204;-71
2021/04/25 18:22:50;;;;;;;5.23;2.03;;;;;;;;;;4915868;29;20189;-71
2021/04/25 18:25:54;;;;;;;2.40;1.67;;;;;;;;;;4904031;29;20217;-71
2021/04/25 18:29:06;;;;;;;48.97;4.17;;;;;;;;;;4905018;29;20189;-71
2021/04/25 18:32:10;;;;;;;16.83;2.80;;;;;;;;;;4915311;29;20181;-71
2021/04/25 18:35:18;;;;;;;8.13;3.13;;;;;;;;;;4903887;29;20700;-71
2021/04/25 18:38:23;;;;;;;6.20;3.00;;;;;;;;;;4903803;29;20531;-71